Поточна погода

  • DecodeMetar

    METAR UKBB 210700Z 11003MPS 9999 BKN040 M04/M05 Q1024 R36R/190060 R36L/CLRD// NOSIG

    Регулярне зведення по аеродрому Київ/Бориспіль за 07:00 UTC.

    Напрямок вітру: 110°.

    Швидкість вітру: 3 м/с.

    Видимість: більше 10 км.

    Дальність видимості на ЗПС 36 права 1900 метрів.

    Стан неба: хмарність значна (5-7 окт) на висоті 1200 м.

    Температура: повітря -04 °C, точки роси -05 °C.

    Вологість: 93%.

    Атмосферний тиск: 1024 гПа.

    Стан ЗПС 36 ліва: ліва:чисто, умови гальмування не повідомляються.

    Прогноз на 2 години. Без суттєвих змін.


    METAR UKKK 210700Z VRB01MPS 8000 OVC045 M02/M05 Q1023 R08/290056 NOSIG

    Регулярне зведення по аеродрому Київ/Жуляни за 07:00 UTC.

    Напрямок вітру: нестійкий .

    Швидкість вітру: 1 м/с.

    Видимість: 8000 метрів.

    Дальність видимості на ЗПС 08 2900 метрів.

    Стан неба: хмарність суцільна (8 окт) на висоті 1350 м.

    Температура: повітря -02 °C, точки роси -05 °C.

    Вологість: 81%.

    Атмосферний тиск: 1023 гПа.

    Прогноз на 2 години. Без суттєвих змін.


    METAR UKKM 210700Z 00000MPS 6000 OVC042 M02/M04 Q1023 R33/710250 NOSIG

    Регулярне зведення по аеродрому Київ/Антонов-2 (Гостомель) за 07:00 UTC.

    Штиль.

    Видимість: 6000 метрів.

    Дальність видимості на ЗПС 33 7102 метрів.

    Стан неба: хмарність суцільна (8 окт) на висоті 1260 м.

    Температура: повітря -02 °C, точки роси -04 °C.

    Вологість: 87%.

    Атмосферний тиск: 1023 гПа.

    Прогноз на 2 години. Без суттєвих змін.


    METAR UKKT 210700Z 00000MPS 6000 OVC046 00/M02 Q1023

    Регулярне зведення по аеродрому Київ/Антонов-1 (Святошин) за 07:00 UTC.

    Штиль.

    Видимість: 6000 метрів.

    Стан неба: хмарність суцільна (8 окт) на висоті 1380 м.

    Температура: повітря 00 °C, точки роси -02 °C.

    Вологість: 87%.

    Атмосферний тиск: 1023 гПа.